createdAt,value
2019-02-18T08:10:49.908Z,0.07
2019-02-18T08:12:50.043Z,0.0
2019-02-18T08:14:50.082Z,0.0
2019-02-18T08:16:50.106Z,0.0
2019-02-18T08:18:50.088Z,0.1
2019-02-18T08:20:50.177Z,0.2
2019-02-18T08:22:50.165Z,0.4
2019-02-18T08:24:50.216Z,0.4
2019-02-18T08:26:50.295Z,0.5
2019-02-18T08:28:50.318Z,0.5
2019-02-18T08:30:50.379Z,0.7
2019-02-18T08:32:50.468Z,0.8
2019-02-18T08:34:49.833Z,0.9
2019-02-18T08:36:49.874Z,0.9
2019-02-18T08:38:49.966Z,1.0
2019-02-18T08:40:49.968Z,1.1
2019-02-18T08:42:49.904Z,1.3
2019-02-18T08:44:49.927Z,1.3
2019-02-18T08:46:50.097Z,1.4
2019-02-18T08:48:50.151Z,1.6
2019-02-18T08:50:50.209Z,1.7
2019-02-18T08:52:50.167Z,1.8
2019-02-18T08:54:57.211Z,2.0
2019-02-18T08:56:50.245Z,2.0
2019-02-18T08:58:50.303Z,2.1
2019-02-18T09:00:50.321Z,2.2
2019-02-18T09:02:50.273Z,2.4
2019-02-18T09:04:49.694Z,2.4
2019-02-18T09:06:49.836Z,2.6
2019-02-18T09:08:49.922Z,2.8
2019-02-18T09:10:50.037Z,2.9
2019-02-18T09:12:50.170Z,2.9
2019-02-18T09:14:50.237Z,3.1
2019-02-18T09:16:50.334Z,3.1
2019-02-18T09:18:50.276Z,3.3
2019-02-18T09:20:50.231Z,3.5
2019-02-18T09:22:50.287Z,3.5
2019-02-18T09:24:49.825Z,3.6
2019-02-18T09:26:50.000Z,3.8
2019-02-18T09:28:49.953Z,3.9
2019-02-18T09:30:49.932Z,4.0
2019-02-18T09:32:50.010Z,4.0
2019-02-18T09:34:53.606Z,4.2
2019-02-18T09:36:49.732Z,4.3
2019-02-18T09:38:49.717Z,4.4
2019-02-18T09:40:51.959Z,4.6
2019-02-18T09:42:49.984Z,4.6
2019-02-18T09:44:50.018Z,4.8
2019-02-18T09:46:49.999Z,4.9
2019-02-18T09:48:50.003Z,5.0
2019-02-18T09:50:50.062Z,5.1
2019-02-18T09:52:50.021Z,5.1
2019-02-18T09:54:50.001Z,5.2
2019-02-18T09:56:50.151Z,5.4
2019-02-18T09:58:50.615Z,5.5
2019-02-18T10:00:50.663Z,5.5
2019-02-18T10:02:50.629Z,5.6
2019-02-18T10:04:50.040Z,5.8
2019-02-18T10:06:50.138Z,5.8
2019-02-18T10:08:50.183Z,5.8
2019-02-18T10:10:56.771Z,6.0
2019-02-18T10:12:49.724Z,6.1
2019-02-18T10:14:49.838Z,6.2
2019-02-18T10:16:50.013Z,6.2
2019-02-18T10:18:49.991Z,6.2
2019-02-18T10:20:50.048Z,6.4
2019-02-18T10:22:50.051Z,6.5
2019-02-18T10:24:51.436Z,6.6
2019-02-18T10:26:50.681Z,6.7
2019-02-18T10:28:49.714Z,6.7
2019-02-18T10:30:49.707Z,6.8
2019-02-18T10:32:49.881Z,7.0
2019-02-18T10:34:50.305Z,7.0
2019-02-18T10:36:50.353Z,7.1
2019-02-18T10:38:50.267Z,7.1
2019-02-18T10:40:50.337Z,7.2
2019-02-18T10:42:50.332Z,7.4
2019-02-18T10:44:50.960Z,7.5
2019-02-18T10:46:50.454Z,7.6
2019-02-18T10:48:50.544Z,7.6
2019-02-18T10:50:50.645Z,7.7
2019-02-18T10:52:50.675Z,7.8
2019-02-18T10:54:50.249Z,7.9
2019-02-18T10:56:50.322Z,7.9
2019-02-18T10:58:50.440Z,8.0
2019-02-18T11:00:51.557Z,8.1
2019-02-18T11:02:50.171Z,8.2
2019-02-18T11:04:50.509Z,8.3
2019-02-18T11:06:50.608Z,8.4
2019-02-18T11:08:50.662Z,8.4
2019-02-18T11:10:50.700Z,8.4
2019-02-18T11:12:49.724Z,8.6
2019-02-18T11:14:49.797Z,8.7
2019-02-18T11:16:49.959Z,8.7
2019-02-18T11:18:50.032Z,8.8
2019-02-18T11:20:50.126Z,8.9
2019-02-18T11:22:50.107Z,9.0
2019-02-18T11:24:50.313Z,9.0
2019-02-18T11:26:50.370Z,9.1
2019-02-18T11:28:50.370Z,9.2
2019-02-18T11:30:50.358Z,9.3
2019-02-18T11:32:50.505Z,9.4
2019-02-18T11:34:50.012Z,9.5
2019-02-18T11:36:50.108Z,9.5
2019-02-18T11:38:50.091Z,9.6
2019-02-18T11:40:50.324Z,9.7
2019-02-18T11:42:50.591Z,9.8
2019-02-18T11:44:50.873Z,9.8
2019-02-18T11:46:50.184Z,9.9
2019-02-18T11:48:50.313Z,10.0
2019-02-18T11:50:50.612Z,10.1
2019-02-18T11:52:50.753Z,10.2
2019-02-18T11:54:50.031Z,10.2
2019-02-18T11:56:50.342Z,10.2
2019-02-18T11:58:50.578Z,10.3
2019-02-18T12:00:50.790Z,10.4
2019-02-18T12:02:50.069Z,10.5
2019-02-18T12:04:50.690Z,10.5
2019-02-18T12:06:50.044Z,10.5
2019-02-18T12:08:50.323Z,10.7
2019-02-18T12:10:50.652Z,10.7
2019-02-18T12:12:50.927Z,10.7
2019-02-18T12:14:51.513Z,10.8
2019-02-18T12:16:50.277Z,10.9
2019-02-18T12:18:50.577Z,11.0
2019-02-18T12:20:50.792Z,11.0
2019-02-18T12:22:50.072Z,11.1
2019-02-18T12:24:50.284Z,11.2
2019-02-18T12:26:50.585Z,11.2
2019-02-18T12:28:50.797Z,11.4
2019-02-18T12:30:50.030Z,11.4
2019-02-18T12:32:50.344Z,11.4
2019-02-18T12:34:50.179Z,11.4
2019-02-18T12:36:50.514Z,11.6
2019-02-18T12:38:50.675Z,11.6
2019-02-18T12:40:49.950Z,11.6
2019-02-18T12:42:50.284Z,11.7
2019-02-18T12:44:50.557Z,11.8
2019-02-18T12:46:50.839Z,11.8
2019-02-18T12:48:50.192Z,11.9
2019-02-18T12:50:50.569Z,11.9
2019-02-18T12:52:51.113Z,11.9
2019-02-18T12:54:50.850Z,12.0
2019-02-18T12:56:50.283Z,12.1
2019-02-18T12:58:55.463Z,12.2
2019-02-18T13:00:50.825Z,12.2
2019-02-18T13:02:50.176Z,12.2
2019-02-18T13:04:50.750Z,12.3
2019-02-18T13:06:50.498Z,12.4
2019-02-18T13:08:50.787Z,12.4
2019-02-18T13:10:50.197Z,12.4
2019-02-18T13:12:50.631Z,12.5
2019-02-18T13:14:51.379Z,12.5
2019-02-18T13:16:50.374Z,12.6
2019-02-18T13:18:50.721Z,12.6
2019-02-18T13:20:50.224Z,12.6
2019-02-18T13:22:50.614Z,12.7
2019-02-18T13:24:50.886Z,12.8
2019-02-18T13:26:50.165Z,12.8
2019-02-18T13:28:50.521Z,12.8
2019-02-18T13:30:50.788Z,12.8
2019-02-18T13:32:50.289Z,12.8
2019-02-18T13:34:50.208Z,12.9
2019-02-18T13:36:51.411Z,12.9
2019-02-18T13:38:50.317Z,13.0
2019-02-18T13:40:50.585Z,13.0
2019-02-18T13:42:50.777Z,13.0
2019-02-18T13:44:51.661Z,13.1
2019-02-18T13:46:50.506Z,13.1
2019-02-18T13:48:50.008Z,13.1
2019-02-18T13:50:50.438Z,13.2
2019-02-18T13:52:50.657Z,13.2
2019-02-18T13:54:49.958Z,13.2
2019-02-18T13:56:50.294Z,13.2
2019-02-18T13:58:50.470Z,13.3
2019-02-18T14:00:50.772Z,13.4
2019-02-18T14:02:50.185Z,13.4
2019-02-18T14:04:50.885Z,13.4
2019-02-18T14:06:50.199Z,13.4
2019-02-18T14:08:50.435Z,13.4
2019-02-18T14:10:50.745Z,13.4
2019-02-18T14:12:50.104Z,13.4
2019-02-18T14:14:50.360Z,13.5
2019-02-18T14:16:50.649Z,13.6
2019-02-18T14:18:49.991Z,13.6
2019-02-18T14:20:50.230Z,13.5
2019-02-18T14:22:50.551Z,13.6
2019-02-18T14:24:50.767Z,13.6
2019-02-18T14:26:50.196Z,13.6
2019-02-18T14:28:50.466Z,13.6
2019-02-18T14:30:50.829Z,13.7
2019-02-18T14:32:50.033Z,13.7
2019-02-18T14:34:50.599Z,13.7
2019-02-18T14:36:50.000Z,13.7
2019-02-18T14:38:51.279Z,13.7
2019-02-18T14:40:50.918Z,13.7
2019-02-18T14:42:50.291Z,13.8
2019-02-18T14:44:52.460Z,13.8
2019-02-18T14:46:51.910Z,13.8
2019-02-18T14:48:50.797Z,13.8
2019-02-18T14:50:57.577Z,13.7
2019-02-18T14:52:50.890Z,13.7
2019-02-18T14:54:50.142Z,13.8
2019-02-18T14:56:50.533Z,13.7
2019-02-18T14:58:50.791Z,13.7
2019-02-18T15:00:50.192Z,13.7
2019-02-18T15:02:50.461Z,13.7
2019-02-18T15:04:50.017Z,13.7
2019-02-18T15:06:50.181Z,13.7
2019-02-18T15:08:50.273Z,13.6
2019-02-18T15:10:50.330Z,13.6
2019-02-18T15:12:50.286Z,13.6
2019-02-18T15:14:50.413Z,13.6
2019-02-18T15:16:50.472Z,13.6
2019-02-18T15:18:50.433Z,13.6
2019-02-18T15:20:50.429Z,13.6
2019-02-18T15:22:50.116Z,13.5
2019-02-18T15:24:50.229Z,13.5
2019-02-18T15:26:50.442Z,13.4
2019-02-18T15:28:50.451Z,13.4
2019-02-18T15:30:50.494Z,13.4
2019-02-18T15:32:50.808Z,13.4
2019-02-18T15:34:50.278Z,13.21
2019-02-18T15:36:50.396Z,13.15
2019-02-18T15:38:50.395Z,12.92
2019-02-18T15:40:51.358Z,12.78
2019-02-18T15:42:50.104Z,12.52
2019-02-18T15:44:50.107Z,12.32
2019-02-18T15:46:50.283Z,11.85
2019-02-18T15:48:51.122Z,11.70
2019-02-18T15:50:50.624Z,11.64
2019-02-18T15:52:50.713Z,11.45
2019-02-18T15:54:49.729Z,11.20
2019-02-18T15:56:50.778Z,11.20
2019-02-18T15:58:50.313Z,10.81
2019-02-18T16:00:50.352Z,10.64
2019-02-18T16:02:50.411Z,10.46
2019-02-18T16:04:49.953Z,10.30
2019-02-18T16:06:50.122Z,10.20
2019-02-18T16:08:50.260Z,10.03
2019-02-18T16:10:50.294Z,9.93
2019-02-18T16:12:51.544Z,9.61
2019-02-18T16:14:50.583Z,9.35
2019-02-18T16:16:50.708Z,9.25
2019-02-18T16:18:49.719Z,8.97
2019-02-18T16:20:49.849Z,8.83
2019-02-18T16:22:49.964Z,8.55
2019-02-18T16:24:50.078Z,8.35
2019-02-18T16:26:50.363Z,8.25
2019-02-18T16:28:50.407Z,8.08
2019-02-18T16:30:50.464Z,7.99
2019-02-18T16:32:50.623Z,7.74
2019-02-18T16:34:50.607Z,7.67
2019-02-18T16:36:50.461Z,7.43
2019-02-18T16:38:50.542Z,7.34
2019-02-18T16:40:51.657Z,7.08
2019-02-18T16:42:58.735Z,6.95
2019-02-18T16:44:50.746Z,6.86
2019-02-18T16:46:49.975Z,6.73
2019-02-18T16:48:50.250Z,6.63
2019-02-18T16:50:51.066Z,6.52
2019-02-18T16:52:50.596Z,6.52
2019-02-18T16:54:50.604Z,6.32
2019-02-18T16:56:49.966Z,6.20
2019-02-18T16:58:50.891Z,6.12
2019-02-18T17:00:58.170Z,5.99
2019-02-18T17:02:51.446Z,5.85
2019-02-18T17:04:50.036Z,5.69
2019-02-18T17:06:51.038Z,5.62
2019-02-18T17:08:50.649Z,5.49
2019-02-18T17:10:50.775Z,5.44
2019-02-18T17:12:49.952Z,5.38
2019-02-18T17:14:50.096Z,5.28
2019-02-18T17:16:50.175Z,5.21
2019-02-18T17:18:50.226Z,5.06
2019-02-18T17:20:50.367Z,4.99
2019-02-18T17:22:50.508Z,4.88
2019-02-18T17:24:50.556Z,4.83
2019-02-18T17:26:49.742Z,4.71
2019-02-18T17:28:49.819Z,4.60
2019-02-18T17:30:50.006Z,4.53
2019-02-18T17:32:50.118Z,4.41
2019-02-18T17:34:50.486Z,4.34
2019-02-18T17:36:51.331Z,4.26
2019-02-18T17:38:50.422Z,4.23
2019-02-18T17:40:50.510Z,4.15
2019-02-18T17:42:50.614Z,4.12
2019-02-18T17:44:50.637Z,4.12
2019-02-18T17:46:50.174Z,3.97
2019-02-18T17:48:50.341Z,3.97
2019-02-18T17:50:50.513Z,3.79
2019-02-18T17:52:51.588Z,3.75
2019-02-18T17:54:50.340Z,3.60
2019-02-18T17:56:50.573Z,3.60
2019-02-18T17:58:50.643Z,3.49
2019-02-18T18:00:49.764Z,3.46
2019-02-18T18:02:50.004Z,3.36
2019-02-18T18:04:50.419Z,3.28
2019-02-18T18:06:50.560Z,3.22
2019-02-18T18:08:50.707Z,3.18
2019-02-18T18:10:49.852Z,3.18
2019-02-18T18:12:50.067Z,3.26
2019-02-18T18:14:50.159Z,3.23
2019-02-18T18:16:50.280Z,3.13
2019-02-18T18:18:50.373Z,3.10
2019-02-18T18:20:50.453Z,3.02
2019-02-18T18:22:50.474Z,2.93
2019-02-18T18:24:50.546Z,2.89
2019-02-18T18:26:50.672Z,2.79
2019-02-18T18:28:49.832Z,2.73
2019-02-18T18:30:50.679Z,2.70
2019-02-18T18:32:50.193Z,2.69
2019-02-18T18:34:50.720Z,2.63
2019-02-18T18:36:49.986Z,2.55
2019-02-18T18:38:50.964Z,2.55
2019-02-18T18:40:50.518Z,2.45
2019-02-18T18:42:50.633Z,2.37
2019-02-18T18:44:50.710Z,2.36
2019-02-18T18:46:50.992Z,2.30
2019-02-18T18:48:50.672Z,2.26
2019-02-18T18:50:49.687Z,2.12
2019-02-18T18:52:49.859Z,2.08
2019-02-18T18:54:50.986Z,2.01
2019-02-18T18:56:49.806Z,2.00
2019-02-18T18:58:49.888Z,1.97
2019-02-18T19:00:50.037Z,1.98
2019-02-18T19:02:51.134Z,1.96
2019-02-18T19:04:50.209Z,1.94
2019-02-18T19:06:50.294Z,1.90
2019-02-18T19:08:50.360Z,1.84
2019-02-18T19:10:51.165Z,1.84
2019-02-18T19:12:49.899Z,1.72
2019-02-18T19:14:49.953Z,1.68
2019-02-18T19:16:50.037Z,1.61
2019-02-18T19:18:51.190Z,1.57
2019-02-18T19:20:49.835Z,1.49
2019-02-18T19:22:49.900Z,1.48
2019-02-18T19:24:49.934Z,1.38
2019-02-18T19:26:50.831Z,1.34
2019-02-18T19:28:50.367Z,1.31
2019-02-18T19:30:50.373Z,1.31
2019-02-18T19:32:50.384Z,1.27
2019-02-18T19:34:49.874Z,1.27
2019-02-18T19:36:50.137Z,1.24
2019-02-18T19:38:50.145Z,1.29
2019-02-18T19:40:50.131Z,1.30
2019-02-18T19:42:50.132Z,1.26
2019-02-18T19:44:50.143Z,1.26
2019-02-18T19:46:50.243Z,1.29
2019-02-18T19:48:50.244Z,1.29
2019-02-18T19:50:50.372Z,1.34
2019-02-18T19:52:50.476Z,1.31
2019-02-18T19:54:50.529Z,1.29
2019-02-18T19:56:50.560Z,1.20
2019-02-18T19:58:50.633Z,1.09
2019-02-18T20:00:50.695Z,1.06
2019-02-18T20:02:50.699Z,0.92
2019-02-18T20:04:50.035Z,0.89
2019-02-18T20:06:50.162Z,0.83
2019-02-18T20:08:50.234Z,0.79
2019-02-18T20:10:50.213Z,0.74
2019-02-18T20:12:50.241Z,0.76
2019-02-18T20:14:50.310Z,0.74
2019-02-18T20:16:50.344Z,0.67
2019-02-18T20:18:50.454Z,0.64
2019-02-18T20:20:50.443Z,0.69
2019-02-18T20:22:50.523Z,0.70
2019-02-18T20:24:50.591Z,0.65
2019-02-18T20:26:49.712Z,0.56
2019-02-18T20:28:49.833Z,0.54
2019-02-18T20:30:49.945Z,0.52
2019-02-18T20:32:49.991Z,0.49
2019-02-18T20:34:50.352Z,0.47
2019-02-18T20:36:50.500Z,0.45
2019-02-18T20:38:50.466Z,0.40
2019-02-18T20:40:50.537Z,0.39
2019-02-18T20:42:50.535Z,0.35
2019-02-18T20:44:52.742Z,0.33
2019-02-18T20:46:49.876Z,0.32
2019-02-18T20:48:50.015Z,0.28
2019-02-18T20:50:50.065Z,0.26
2019-02-18T20:52:50.961Z,0.21
2019-02-18T20:54:50.326Z,0.15
2019-02-18T20:56:50.510Z,0.10
2019-02-18T20:58:50.496Z,0.14
2019-02-18T21:00:51.515Z,0.15
2019-02-18T21:02:50.071Z,0.18
2019-02-18T21:04:50.409Z,0.21
2019-02-18T21:06:50.434Z,0.18
2019-02-18T21:08:51.431Z,0.18
2019-02-18T21:10:49.973Z,0.09
2019-02-18T21:12:49.985Z,0.03
2019-02-18T21:14:50.025Z,0.03
2019-02-18T21:16:50.941Z,0.18
2019-02-18T21:18:50.671Z,0.20
2019-02-18T21:20:51.561Z,0.17
2019-02-18T21:22:50.619Z,0.11
2019-02-18T21:24:50.685Z,0.05
